Alpena, MI

4:01 AM EST on December 08, 2016 (GMT -0500)
Lincoln Elementary School | | Change Station

Elev 587 ft 45.07 °N, 83.43 °W | Updated 7 seconds ago

Overcast
Overcast
29.1 °F
Feels Like 21 °F
N
8.1
Wind Variable Wind from South
Gusts 9.8 mph

Today
High -- | Low -- °F
--% Chance of Precip.
Yesterday
High -- | Low -- °F
Precip. -- in
Pressure 29.88 in
Visibility 10.0 miles
Clouds Overcast 2900 ft
Windchill 21 °F
Dew Point 15 °F
Humidity 55%
Rainfall 0.00 in
Snow Depth Not available.
7:59 AM 4:51 PM
First Quarter, 61% visible
METAR KAPN 080854Z AUTO 25009G16KT 10SM OVC029 M02/M08 A2986 RMK AO2 SLP119 60000 T10221083 50000
Pressure 29.88 in
Visibility 10.0 miles
Clouds Overcast 2900 ft
Windchill 21 °F
Dew Point 15 °F
Humidity 55%
Rainfall 0.00 in
Snow Depth Not available.
7:59 AM 4:51 PM
First Quarter, 61% visible
METAR KAPN 080854Z AUTO 25009G16KT 10SM OVC029 M02/M08 A2986 RMK AO2 SLP119 60000 T10221083 50000

10-Day Weather Forecast

Almanac

Astronomy

Dec. 08, 2016 Rise Set
Actual Time
Civil Twilight
Nautical Twilight
Astronomical Twilight
Moon
Length of Visible Light
Length of Day
Tomorrow will be .
, % of the Moon is Illuminated

Today's Extremes

State Highs State Lows

Community

WunderPhotos

Upload Photos

1,956,259 photos uploaded!

WunderBlog® & News

Nearby

Air Quality

  Air Quality AQ Index Pollutant
Not available.

Snow Depth

Station Depth Elevation

Earthquake Activity

City Distance Mag. Time & Date
Minimum magnitude displayed is 2.5.

Coastal Water Temperatures

Place Temperature

Stations

Nearby Weather Stations

Station Location Temp. Windchill Dew Point Humidity Wind Precip. Elev Updated Type
                   

Watches & Warnings

There are currently no watches in effect.